Time;durP1;ratioP1;P1;durP2;ratioP2;P2;SDS_P1;SDS_P2;PMS_P1;PMS_P2;Temp;Humidity;BMP_temperature;BMP_pressure;BME280_temperature;BME280_humidity;BME280_pressure;Samples;Min_cycle;Max_cycle;Signal;HPM_P1;HPM_P2
2022/05/27 00:01:22;;;;;;;5.73;1.90;;;;;;;18.56;58.35;101108.19;4910146;29;20201;-72
2022/05/27 00:03:50;;;;;;;7.37;2.20;;;;;;;18.52;58.50;101096.16;4910089;29;20308;-71
2022/05/27 00:06:18;;;;;;;8.37;2.47;;;;;;;18.50;58.28;101103.53;4911280;29;20803;-72
2022/05/27 00:08:46;;;;;;;5.00;2.53;;;;;;;18.47;58.71;101101.25;4909975;29;20216;-72
2022/05/27 00:11:14;;;;;;;4.53;2.23;;;;;;;18.38;59.01;101093.25;4910061;29;20826;-70
2022/05/27 00:13:43;;;;;;;9.43;2.60;;;;;;;18.36;58.85;101089.94;4910208;29;20561;-72
2022/05/27 00:16:13;;;;;;;4.07;2.23;;;;;;;18.35;59.04;101092.81;4908879;29;20201;-71
2022/05/27 00:18:42;;;;;;;7.27;2.23;;;;;;;18.41;58.71;101092.88;4909931;29;20615;-71
2022/05/27 00:21:11;;;;;;;6.17;2.20;;;;;;;18.40;58.70;101090.38;4912125;29;20213;-72
2022/05/27 00:23:40;;;;;;;6.60;2.20;;;;;;;18.30;59.53;101085.28;4910433;29;20213;-72
2022/05/27 00:26:09;;;;;;;5.23;2.13;;;;;;;18.35;59.11;101088.25;4908137;29;20255;-71
2022/05/27 00:28:37;;;;;;;4.90;1.97;;;;;;;18.33;59.05;101084.94;4908876;29;20241;-71
2022/05/27 00:31:07;;;;;;;6.70;2.10;;;;;;;18.35;59.30;101074.84;4910220;29;20209;-72
2022/05/27 00:33:39;;;;;;;5.83;2.57;;;;;;;18.31;59.51;101080.75;4909487;29;20581;-72
2022/05/27 00:36:09;;;;;;;8.30;2.40;;;;;;;18.28;59.17;101081.13;4911156;29;20209;-72
2022/05/27 00:38:44;;;;;;;6.17;1.73;;;;;;;18.23;59.72;101084.34;4909872;29;20276;-71
2022/05/27 00:41:15;;;;;;;4.27;1.87;;;;;;;18.20;59.60;101082.06;4908178;29;20310;-71
2022/05/27 00:43:44;;;;;;;5.10;1.93;;;;;;;18.20;60.13;101089.28;4910562;29;20636;-72
2022/05/27 00:46:26;;;;;;;4.23;2.10;;;;;;;18.28;59.21;101087.34;4909196;29;20248;-72
2022/05/27 00:49:02;;;;;;;6.23;1.83;;;;;;;18.27;59.68;101079.47;4902945;29;20296;-70
2022/05/27 00:51:40;;;;;;;4.27;2.10;;;;;;;18.26;59.34;101085.84;4906499;29;20215;-71
2022/05/27 00:54:20;;;;;;;7.10;2.00;;;;;;;18.28;59.45;101073.09;4908050;29;20302;-71
2022/05/27 00:56:57;;;;;;;5.17;1.63;;;;;;;18.26;59.75;101067.06;4909811;29;20228;-72
2022/05/27 00:59:31;;;;;;;5.50;2.20;;;;;;;18.18;60.09;101065.28;4909862;29;20217;-71
2022/05/27 01:02:00;;;;;;;5.37;2.00;;;;;;;18.10;60.59;101067.22;4910202;29;20211;-71
2022/05/27 01:04:30;;;;;;;5.27;1.80;;;;;;;17.99;60.61;101055.06;4907621;29;20213;-72
2022/05/27 01:07:01;;;;;;;6.77;2.00;;;;;;;17.92;60.74;101062.19;4911921;29;20245;-71
2022/05/27 01:09:30;;;;;;;4.20;1.83;;;;;;;17.89;61.42;101052.66;4908314;29;20217;-72
2022/05/27 01:12:19;;;;;;;5.73;2.17;;;;;;;17.92;61.33;101044.25;4908595;29;20204;-70
2022/05/27 01:15:07;;;;;;;5.77;2.00;;;;;;;17.88;61.47;101037.56;4906285;29;20759;-71
2022/05/27 01:17:55;;;;;;;5.83;2.80;;;;;;;17.76;62.17;101038.19;4908716;29;20572;-71
2022/05/27 01:20:31;;;;;;;3.53;1.90;;;;;;;17.80;61.66;101050.22;4907615;29;20249;-70
2022/05/27 01:23:29;;;;;;;6.37;1.97;;;;;;;17.85;61.88;101053.22;4909292;29;20291;-71
2022/05/27 01:26:47;;;;;;;7.67;2.33;;;;;;;17.82;61.78;101048.19;4908454;29;20296;-71
2022/05/27 01:29:47;;;;;;;5.30;2.30;;;;;;;17.75;62.49;101047.25;4846767;29;20338;-71
2022/05/27 01:32:23;;;;;;;4.57;2.07;;;;;;;17.85;61.86;101058.56;4906620;29;20209;-71
2022/05/27 01:34:59;;;;;;;4.07;1.90;;;;;;;17.90;61.73;101056.16;4908350;29;20215;-70
2022/05/27 01:37:42;;;;;;;5.53;2.03;;;;;;;17.85;62.13;101045.16;4910597;29;20208;-71
2022/05/27 01:40:14;;;;;;;4.07;1.80;;;;;;;17.75;62.59;101041.88;4909795;29;20720;-71
2022/05/27 01:42:51;;;;;;;4.37;1.90;;;;;;;17.74;62.24;101042.91;4905958;29;20311;-71
2022/05/27 01:45:25;;;;;;;7.30;2.30;;;;;;;17.67;62.63;101037.44;4908164;29;20212;-71
2022/05/27 01:48:00;;;;;;;5.23;2.10;;;;;;;17.55;63.30;101044.19;4909301;29;20243;-71
2022/05/27 01:50:34;;;;;;;7.20;2.00;;;;;;;17.49;63.41;101043.06;4908081;29;20295;-71
2022/05/27 01:53:09;;;;;;;4.40;1.80;;;;;;;17.48;63.19;101052.13;4907104;29;20717;-71
2022/05/27 01:55:44;;;;;;;4.13;2.00;;;;;;;17.53;63.75;101049.72;4906711;29;20236;-71
2022/05/27 01:58:17;;;;;;;6.40;2.50;;;;;;;17.54;63.21;101051.41;4907124;29;20277;-72
2022/05/27 02:00:49;;;;;;;9.57;2.00;;;;;;;17.60;63.08;101048.00;4909945;29;20730;-72
2022/05/27 02:03:23;;;;;;;3.80;1.93;;;;;;;17.62;63.55;101045.16;4909760;29;20240;-72
2022/05/27 02:05:56;;;;;;;6.70;1.93;;;;;;;17.53;63.64;101039.00;4910239;29;20223;-72
2022/05/27 02:08:31;;;;;;;4.83;2.20;;;;;;;17.56;63.59;101045.84;4911023;29;20378;-72
2022/05/27 02:11:06;;;;;;;6.03;2.03;;;;;;;17.60;63.39;101048.00;4912733;29;20224;-72
2022/05/27 02:13:39;;;;;;;6.90;2.27;;;;;;;17.61;63.30;101049.66;4910013;29;20255;-72
2022/05/27 02:16:11;;;;;;;7.30;2.53;;;;;;;17.59;63.58;101045.50;4909785;29;20244;-72
2022/05/27 02:18:48;;;;;;;7.43;2.20;;;;;;;17.49;63.99;101045.75;4910661;29;20200;-72
2022/05/27 02:21:19;;;;;;;6.50;2.27;;;;;;;17.56;63.66;101037.81;4910377;29;20240;-72
2022/05/27 02:23:53;;;;;;;8.47;2.47;;;;;;;17.52;64.26;101045.38;4911131;29;20575;-71
2022/05/27 02:26:25;;;;;;;5.73;2.40;;;;;;;17.58;63.79;101047.34;4910301;29;20219;-71
2022/05/27 02:29:01;;;;;;;4.63;2.43;;;;;;;17.71;63.23;101041.41;4912624;29;20253;-71
2022/05/27 02:31:36;;;;;;;4.40;2.20;;;;;;;17.70;63.02;101039.72;4908500;29;20238;-71
2022/05/27 02:37:06;;;;;;;7.93;2.27;;;;;;;17.70;63.26;101038.91;4914060;29;20215;-72
2022/05/27 02:39:36;;;;;;;8.53;2.63;;;;;;;17.76;63.09;101040.88;4911408;29;20223;-71
2022/05/27 02:42:16;;;;;;;4.37;2.40;;;;;;;17.82;62.62;101032.09;4912926;29;20209;-71
2022/05/27 02:44:52;;;;;;;4.53;2.60;;;;;;;17.86;62.65;101028.84;4903124;29;20231;-71
2022/05/27 02:47:38;;;;;;;9.77;3.10;;;;;;;17.89;62.60;101041.91;4908673;29;20224;-71
2022/05/27 02:50:13;;;;;;;7.43;2.87;;;;;;;17.90;62.34;101040.91;4912063;29;20231;-71
2022/05/27 02:52:53;;;;;;;3.93;2.33;;;;;;;17.83;62.91;101039.97;4912067;29;20216;-71
2022/05/27 02:55:39;;;;;;;4.30;2.20;;;;;;;17.83;62.79;101044.50;4911422;29;20523;-71
2022/05/27 02:58:16;;;;;;;6.20;2.60;;;;;;;17.83;63.28;101041.81;4909810;29;20308;-71
2022/05/27 03:00:46;;;;;;;6.47;2.33;;;;;;;17.86;62.51;101044.94;4909859;29;20215;-71
2022/05/27 03:03:13;;;;;;;6.67;2.57;;;;;;;17.90;62.82;101045.44;4909988;29;21314;-71
2022/05/27 03:06:03;;;;;;;6.20;2.93;;;;;;;17.91;62.77;101047.94;4903629;29;20213;-71
2022/05/27 03:08:34;;;;;;;6.00;2.60;;;;;;;17.89;62.84;101043.75;4911529;29;20270;-71
2022/05/27 03:11:13;;;;;;;4.73;2.80;;;;;;;17.89;63.03;101046.44;4909879;29;20308;-71
2022/05/27 03:13:56;;;;;;;4.57;2.33;;;;;;;17.89;63.08;101043.75;4912054;29;20257;-70
2022/05/27 03:16:44;;;;;;;5.33;2.57;;;;;;;17.85;63.52;101048.69;4911324;29;20303;-70
2022/05/27 03:19:30;;;;;;;6.77;3.30;;;;;;;17.85;63.67;101045.16;4910101;29;20629;-70
2022/05/27 03:22:12;;;;;;;4.97;2.60;;;;;;;17.86;63.53;101038.75;4914282;29;20295;-71
2022/05/27 03:24:54;;;;;;;8.87;3.20;;;;;;;17.87;63.80;101040.41;4911058;29;20220;-71
2022/05/27 03:27:41;;;;;;;5.67;2.67;;;;;;;17.88;64.11;101042.09;4910630;29;20702;-71
2022/05/27 03:30:14;;;;;;;8.87;3.33;;;;;;;17.91;63.77;101036.38;4910212;29;20689;-70
2022/05/27 03:32:47;;;;;;;6.90;2.87;;;;;;;17.96;63.50;101039.31;4911412;29;20221;-71
2022/05/27 03:35:23;;;;;;;7.23;3.13;;;;;;;17.94;63.36;101044.88;4911528;29;20209;-71
2022/05/27 03:37:59;;;;;;;6.57;2.70;;;;;;;17.88;64.37;101039.41;4910935;29;20206;-72
2022/05/27 03:40:32;;;;;;;7.83;3.10;;;;;;;17.91;64.09;101039.06;4913091;29;20231;-72
2022/05/27 03:43:02;;;;;;;7.50;2.83;;;;;;;17.92;63.62;101043.41;4908951;29;20219;-72
2022/05/27 03:45:30;;;;;;;7.80;3.60;;;;;;;17.90;64.00;101051.63;4910318;29;20303;-72
2022/05/27 03:47:58;;;;;;;7.13;3.37;;;;;;;17.87;64.33;101054.66;4910220;29;20246;-72
2022/05/27 03:50:27;;;;;;;7.57;3.77;;;;;;;17.95;63.70;101059.13;4908949;29;20359;-72
2022/05/27 03:52:56;;;;;;;5.97;3.17;;;;;;;17.99;64.05;101060.44;4909039;29;20667;-72
2022/05/27 03:55:26;;;;;;;6.57;3.57;;;;;;;17.97;64.13;101065.16;4910867;29;20208;-72
2022/05/27 03:57:54;;;;;;;5.70;3.00;;;;;;;17.94;64.60;101074.38;4911051;29;20260;-72
2022/05/27 04:00:23;;;;;;;5.70;3.30;;;;;;;17.97;63.63;101065.16;4909996;29;20268;-71
2022/05/27 04:02:51;;;;;;;6.67;3.90;;;;;;;17.93;63.92;101056.66;4901687;29;20215;-71
2022/05/27 04:05:25;;;;;;;7.17;3.90;;;;;;;17.93;63.90;101058.50;4910927;29;20207;-71
2022/05/27 04:07:52;;;;;;;7.50;3.50;;;;;;;17.90;64.00;101054.31;4907780;29;20825;-71
2022/05/27 04:10:21;;;;;;;7.07;3.80;;;;;;;17.96;63.63;101055.44;4914559;29;20232;-71
2022/05/27 04:12:49;;;;;;;5.80;3.83;;;;;;;17.87;64.22;101054.66;4910597;29;20209;-71
2022/05/27 04:15:18;;;;;;;7.03;3.80;;;;;;;17.80;64.13;101066.31;4910308;29;20563;-71
2022/05/27 04:17:45;;;;;;;7.33;3.70;;;;;;;17.71;64.81;101049.44;4909989;29;20205;-71
2022/05/27 04:20:17;;;;;;;6.60;4.00;;;;;;;17.75;64.53;101056.13;4910855;29;20221;-72
2022/05/27 04:22:45;;;;;;;10.03;4.00;;;;;;;17.82;64.26;101057.06;4912521;29;20295;-71
2022/05/27 04:25:14;;;;;;;8.03;4.40;;;;;;;17.82;64.10;101069.66;4910875;29;20213;-71
2022/05/27 04:27:44;;;;;;;7.90;4.27;;;;;;;17.85;64.50;101066.63;4908982;29;20244;-71
2022/05/27 04:30:13;;;;;;;7.43;4.10;;;;;;;17.72;64.77;101069.91;4909866;29;20254;-70
2022/05/27 04:32:41;;;;;;;8.60;4.23;;;;;;;17.70;64.75;101071.09;4906883;29;20335;-70
2022/05/27 04:35:10;;;;;;;7.57;4.00;;;;;;;17.63;65.36;101071.81;4912887;29;20317;-70
2022/05/27 04:37:41;;;;;;;9.07;4.60;;;;;;;17.57;64.97;101075.19;4908802;29;20296;-70
2022/05/27 04:40:10;;;;;;;10.90;4.50;;;;;;;17.64;65.08;101078.84;4909103;29;20234;-71
2022/05/27 04:42:37;;;;;;;8.93;4.60;;;;;;;17.66;65.14;101076.81;4907728;29;20299;-71
2022/05/27 04:45:08;;;;;;;9.13;4.23;;;;;;;17.67;64.57;101081.19;4907337;29;20565;-72
2022/05/27 04:47:38;;;;;;;10.67;4.27;;;;;;;17.73;64.90;101081.47;4909238;29;20215;-72
2022/05/27 04:50:11;;;;;;;7.53;4.07;;;;;;;17.63;64.99;101071.81;4911420;29;20260;-71
2022/05/27 04:52:40;;;;;;;7.50;4.13;;;;;;;17.62;64.60;101080.03;4909421;29;20212;-71
2022/05/27 04:55:11;;;;;;;7.93;4.60;;;;;;;17.60;64.71;101072.13;4914077;29;20217;-72
2022/05/27 04:57:41;;;;;;;6.40;3.90;;;;;;;17.53;65.14;101073.84;4909400;29;20209;-71
2022/05/27 05:00:14;;;;;;;10.63;3.80;;;;;;;17.52;65.08;101074.88;4908349;29;20309;-72
2022/05/27 05:02:43;;;;;;;9.30;4.57;;;;;;;17.61;64.95;101067.59;4908178;29;20667;-71
2022/05/27 05:05:13;;;;;;;8.80;4.20;;;;;;;17.62;65.38;101059.41;4914276;29;20244;-72
2022/05/27 05:07:45;;;;;;;8.27;4.60;;;;;;;17.73;65.14;101060.84;4912531;29;20244;-71
2022/05/27 05:10:17;;;;;;;8.40;4.30;;;;;;;17.76;64.54;101054.28;4907904;29;20243;-71
2022/05/27 05:12:45;;;;;;;12.43;4.93;;;;;;;17.73;64.92;101070.72;4909081;29;20585;-72
2022/05/27 05:15:14;;;;;;;6.97;3.90;;;;;;;17.59;65.29;101075.00;4908595;29;20217;-72
2022/05/27 05:17:44;;;;;;;7.33;3.90;;;;;;;17.58;65.60;101073.34;4909668;29;20613;-72
2022/05/27 05:20:14;;;;;;;7.07;3.67;;;;;;;17.69;65.45;101078.28;4909303;29;20307;-72
2022/05/27 05:22:42;;;;;;;7.47;4.63;;;;;;;17.58;65.67;101082.22;4910890;29;20682;-71
2022/05/27 05:25:11;;;;;;;6.77;3.80;;;;;;;17.54;65.45;101067.47;4909971;29;20241;-72
2022/05/27 05:27:40;;;;;;;11.03;4.47;;;;;;;17.58;65.15;101063.44;4910865;29;20952;-71
2022/05/27 05:30:12;;;;;;;6.60;3.67;;;;;;;17.55;65.68;101068.31;4910973;29;20276;-72
2022/05/27 05:32:46;;;;;;;9.30;4.17;;;;;;;17.70;64.76;101060.34;4911041;29;20225;-71
2022/05/27 05:35:14;;;;;;;7.03;4.20;;;;;;;17.62;64.96;101062.09;4911302;29;20897;-71
2022/05/27 05:37:44;;;;;;;7.63;4.53;;;;;;;17.63;64.86;101058.41;4914208;29;20232;-71
2022/05/27 05:40:13;;;;;;;8.97;4.77;;;;;;;17.71;64.92;101059.34;4911197;29;20215;-71
2022/05/27 05:42:42;;;;;;;8.63;4.33;;;;;;;17.68;64.74;101064.03;4909657;29;20339;-71
2022/05/27 05:45:12;;;;;;;6.77;4.70;;;;;;;17.80;64.78;101058.25;4910338;29;20677;-71
2022/05/27 05:47:39;;;;;;;6.43;4.03;;;;;;;17.79;64.60;101057.41;4910816;29;20311;-71
2022/05/27 05:50:10;;;;;;;6.83;4.10;;;;;;;17.77;64.45;101061.28;4912016;29;20236;-71
2022/05/27 05:52:39;;;;;;;11.13;4.17;;;;;;;17.75;64.31;101049.94;4909880;29;20670;-71
2022/05/27 05:55:08;;;;;;;7.43;4.60;;;;;;;17.78;64.08;101053.06;4908740;29;20204;-71
2022/05/27 05:57:41;;;;;;;8.10;4.07;;;;;;;17.75;64.32;101052.63;4909633;29;20260;-72
2022/05/27 06:00:12;;;;;;;5.73;4.00;;;;;;;17.78;63.74;101041.50;4908894;29;21675;-71
2022/05/27 06:02:40;;;;;;;6.80;4.47;;;;;;;17.82;63.72;101046.34;4910146;29;20292;-71
2022/05/27 06:05:10;;;;;;;8.80;4.17;;;;;;;17.86;63.84;101044.09;4909981;29;20252;-72
2022/05/27 06:07:38;;;;;;;9.37;4.40;;;;;;;17.88;63.78;101050.13;4910641;29;20331;-71
2022/05/27 06:10:08;;;;;;;8.53;3.90;;;;;;;18.00;63.25;101046.84;4912057;29;20322;-71
2022/05/27 06:12:37;;;;;;;6.73;3.60;;;;;;;17.93;63.45;101053.13;4912387;29;20219;-71
2022/05/27 06:15:09;;;;;;;6.83;4.20;;;;;;;18.00;63.25;101056.75;4910397;29;20270;-71
2022/05/27 06:17:41;;;;;;;7.30;4.23;;;;;;;18.04;62.67;101045.44;4912315;29;20216;-70
2022/05/27 06:20:12;;;;;;;6.77;4.10;;;;;;;18.16;61.85;101045.84;4911266;29;20205;-71
2022/05/27 06:22:40;;;;;;;6.93;4.07;;;;;;;18.15;61.75;101049.53;4910808;29;20231;-71
2022/05/27 06:25:09;;;;;;;5.67;3.97;;;;;;;18.20;61.94;101049.84;4909736;29;20334;-71
2022/05/27 06:27:37;;;;;;;6.43;3.47;;;;;;;18.16;62.58;101039.63;4908913;29;20219;-72
2022/05/27 06:35:38;;;;;;;5.17;3.37;;;;;;;18.35;61.29;101029.19;4907715;29;20212;-71
2022/05/27 06:38:06;;;;;;;7.83;3.50;;;;;;;18.53;60.42;101025.31;4911056;29;20212;-71
2022/05/27 06:40:34;;;;;;;6.87;4.20;;;;;;;18.57;60.54;101042.72;4910005;29;20212;-71
2022/05/27 06:43:02;;;;;;;7.17;3.50;;;;;;;18.67;60.49;101029.84;4908063;29;20316;-71
2022/05/27 06:45:30;;;;;;;5.23;2.97;;;;;;;18.72;60.00;101030.97;4908697;29;20683;-72
2022/05/27 06:47:57;;;;;;;4.30;3.10;;;;;;;18.82;59.82;101029.84;4912282;29;20244;-71
2022/05/27 06:50:25;;;;;;;6.67;3.07;;;;;;;18.94;59.60;101034.53;4909568;29;20726;-71
2022/05/27 06:52:57;;;;;;;5.80;3.27;;;;;;;18.90;60.00;101027.88;4911687;29;20205;-71
2022/05/27 06:55:25;;;;;;;6.17;3.10;;;;;;;18.99;59.82;101037.50;4910685;29;20217;-71
2022/05/27 06:57:53;;;;;;;4.27;2.40;;;;;;;19.09;59.42;101043.38;4912386;29;20216;-71
2022/05/27 07:00:23;;;;;;;5.47;2.80;;;;;;;19.05;59.16;101042.09;4911363;29;20209;-71
2022/05/27 07:02:51;;;;;;;4.63;2.33;;;;;;;19.09;58.77;101043.38;4911349;29;20217;-70
2022/05/27 07:05:19;;;;;;;5.33;2.43;;;;;;;19.10;58.99;101045.03;4913269;29;20213;-72
2022/05/27 07:07:47;;;;;;;5.13;3.33;;;;;;;19.07;59.60;101050.81;4912043;29;20284;-72
2022/05/27 07:10:16;;;;;;;9.40;3.37;;;;;;;19.12;59.59;101044.84;4910609;29;20228;-72
2022/05/27 07:12:46;;;;;;;5.50;2.70;;;;;;;19.13;58.90;101044.69;4903146;29;20222;-72
2022/05/27 07:15:16;;;;;;;5.80;2.40;;;;;;;19.18;59.24;101053.00;4914149;29;20251;-72
2022/05/27 07:17:44;;;;;;;5.03;2.70;;;;;;;19.01;59.72;101051.56;4911404;29;20221;-72
2022/05/27 07:20:12;;;;;;;4.87;2.70;;;;;;;19.09;59.45;101058.66;4913458;29;20613;-72
2022/05/27 07:22:40;;;;;;;5.13;2.33;;;;;;;19.05;59.72;101054.72;4911039;29;20239;-71
2022/05/27 07:25:11;;;;;;;7.40;2.80;;;;;;;19.06;59.30;101043.78;4908601;29;20248;-72
2022/05/27 07:27:41;;;;;;;6.27;2.63;;;;;;;19.11;59.50;101052.09;4912829;29;20316;-72
2022/05/27 07:30:10;;;;;;;3.57;2.20;;;;;;;19.05;59.06;101042.09;4909108;29;20335;-71
2022/05/27 07:32:38;;;;;;;4.93;2.67;;;;;;;19.05;58.88;101046.66;4912792;29;20654;-72
2022/05/27 07:35:08;;;;;;;8.60;2.50;;;;;;;19.00;59.47;101044.50;4909242;29;20216;-72
2022/05/27 07:37:36;;;;;;;4.13;2.40;;;;;;;19.00;59.58;101049.06;4910888;29;20237;-72
2022/05/27 07:40:06;;;;;;;3.63;2.30;;;;;;;18.98;60.02;101049.25;4909852;29;20209;-71
2022/05/27 07:42:34;;;;;;;5.70;2.23;;;;;;;18.94;59.79;101047.97;4910748;29;20227;-71
2022/05/27 07:45:03;;;;;;;3.53;2.00;;;;;;;18.95;59.51;101057.69;4908875;29;20346;-71
2022/05/27 07:47:31;;;;;;;4.27;2.33;;;;;;;18.89;59.59;101061.16;4907040;29;20296;-71
2022/05/27 07:50:13;;;;;;;11.03;2.40;;;;;;;18.90;60.06;101065.50;4909841;29;20648;-74
2022/05/27 07:52:42;;;;;;;4.63;2.57;;;;;;;18.89;60.08;101063.84;4908717;29;20599;-71
2022/05/27 07:55:10;;;;;;;3.97;2.33;;;;;;;18.91;59.59;101060.97;4909609;29;20480;-70
2022/05/27 07:57:42;;;;;;;5.53;2.20;;;;;;;18.95;60.21;101063.06;4908693;29;20252;-71
2022/05/27 08:00:15;;;;;;;3.53;2.23;;;;;;;18.93;59.63;101058.91;4909988;29;20214;-71
2022/05/27 08:02:43;;;;;;;5.03;2.90;;;;;;;18.89;60.45;101060.31;4908257;29;20264;-71
2022/05/27 08:05:13;;;;;;;4.80;2.83;;;;;;;18.89;60.38;101063.00;4910812;29;20244;-71
2022/05/27 08:07:41;;;;;;;6.50;2.57;;;;;;;18.93;60.17;101064.28;4911275;29;20209;-71
2022/05/27 08:10:13;;;;;;;4.37;2.40;;;;;;;18.91;59.92;101060.97;4909911;29;20237;-71
2022/05/27 08:12:43;;;;;;;4.10;2.47;;;;;;;18.94;60.31;101064.09;4908765;29;20213;-70
2022/05/27 08:15:13;;;;;;;7.27;2.80;;;;;;;19.00;59.90;101065.19;4910331;29;20213;-71
2022/05/27 08:17:43;;;;;;;6.13;2.43;;;;;;;19.03;60.66;101065.66;4910343;29;20283;-71
2022/05/27 08:20:14;;;;;;;5.60;2.80;;;;;;;18.95;60.44;101070.28;4912734;29;20208;-71
2022/05/27 08:22:42;;;;;;;7.47;2.43;;;;;;;18.99;60.31;101063.53;4903238;29;20295;-71
2022/05/27 08:25:10;;;;;;;5.63;2.30;;;;;;;19.03;59.90;101062.13;4908013;29;20244;-71
2022/05/27 08:27:40;;;;;;;4.47;2.47;;;;;;;19.02;60.13;101057.75;4912643;29;20217;-71
2022/05/27 08:30:14;;;;;;;4.70;2.20;;;;;;;19.04;60.59;101056.56;4905449;29;20240;-71
2022/05/27 08:32:52;;;;;;;5.00;2.00;;;;;;;19.15;59.92;101066.00;4903767;29;20205;-71
2022/05/27 08:38:12;;;;;;;3.50;2.13;;;;;;;19.30;60.35;101068.63;4909428;29;20208;-71
2022/05/27 08:41:05;;;;;;;6.50;2.23;;;;;;;19.29;60.42;101072.34;4912326;29;20455;-71
2022/05/27 08:43:37;;;;;;;3.60;2.60;;;;;;;19.35;59.90;101067.03;4915764;29;20670;-71
2022/05/27 08:46:12;;;;;;;5.43;2.43;;;;;;;19.45;59.54;101072.94;4911463;29;20215;-70
2022/05/27 08:48:46;;;;;;;4.70;2.17;;;;;;;19.51;58.86;101074.06;4912576;29;20290;-67
2022/05/27 08:51:39;;;;;;;9.10;2.37;;;;;;;19.62;58.69;101067.31;4904229;29;20228;-70
2022/05/27 08:54:10;;;;;;;3.50;1.97;;;;;;;19.76;58.30;101067.28;4908436;29;20237;-70
2022/05/27 08:59:39;;;;;;;2.87;1.80;;;;;;;19.91;58.08;101077.94;4912378;29;20193;-70
2022/05/27 09:02:15;;;;;;;3.27;1.63;;;;;;;20.00;58.41;101081.34;4912614;29;20678;-71
2022/05/27 09:04:52;;;;;;;5.63;1.43;;;;;;;19.94;57.21;101069.50;4904980;29;20957;-71
2022/05/27 09:07:37;;;;;;;3.37;1.10;;;;;;;20.24;56.71;101086.28;4910006;29;20204;-71
2022/05/27 09:10:09;;;;;;;3.33;1.10;;;;;;;20.20;56.17;101077.78;4912391;29;20583;-71
2022/05/27 09:12:57;;;;;;;3.60;1.20;;;;;;;20.17;56.24;101080.00;4905880;29;20248;-70
2022/05/27 09:15:39;;;;;;;3.03;1.20;;;;;;;20.19;55.46;101078.78;4908165;29;20217;-70
2022/05/27 09:18:18;;;;;;;7.53;2.27;;;;;;;20.19;56.14;101072.59;4909560;29;20209;-69
2022/05/27 09:20:56;;;;;;;3.57;1.00;;;;;;;20.36;55.84;101073.97;4906768;29;20626;-70
2022/05/27 09:23:44;;;;;;;2.57;1.00;;;;;;;20.54;56.00;101066.22;4910597;29;20236;-69
2022/05/27 09:26:18;;;;;;;2.87;1.17;;;;;;;20.67;55.55;101070.03;4908591;29;20212;-71
2022/05/27 09:28:58;;;;;;;2.90;1.13;;;;;;;20.69;54.87;101068.75;4911475;29;20681;-68
2022/05/27 09:31:33;;;;;;;2.90;0.93;;;;;;;20.73;54.54;101067.34;4907270;29;20566;-68
2022/05/27 09:34:01;;;;;;;3.70;0.80;;;;;;;20.83;54.92;101069.69;4906649;29;20306;-67
2022/05/27 09:36:36;;;;;;;2.63;1.00;;;;;;;21.01;54.27;101069.97;4908791;29;20219;-68
2022/05/27 09:39:13;;;;;;;2.90;1.50;;;;;;;21.12;54.14;101061.25;4912811;29;20221;-72
2022/05/27 09:41:51;;;;;;;3.47;1.50;;;;;;;21.21;54.85;101078.13;4910634;29;20222;-73
2022/05/27 09:44:27;;;;;;;2.73;1.47;;;;;;;21.29;53.72;101069.84;4905399;29;20209;-71
2022/05/27 09:46:55;;;;;;;2.77;1.57;;;;;;;21.26;54.25;101076.50;4908819;29;20567;-72
2022/05/27 09:49:23;;;;;;;5.00;1.80;;;;;;;21.14;54.19;101075.38;4907286;29;20209;-68
2022/05/27 09:51:52;;;;;;;5.60;1.77;;;;;;;21.29;54.09;101070.69;4907790;29;20260;-67
2022/05/27 09:54:34;;;;;;;2.57;1.57;;;;;;;21.32;53.12;101067.59;4906356;29;20680;-69
2022/05/27 09:57:15;;;;;;;3.30;2.00;;;;;;;21.39;53.38;101070.28;4907170;29;20493;-70
2022/05/27 09:59:44;;;;;;;3.70;1.37;;;;;;;21.44;53.43;101073.22;4910472;29;20244;-70
2022/05/27 10:02:21;;;;;;;7.07;1.53;;;;;;;21.48;52.78;101070.94;4913712;29;20214;-70
2022/05/27 10:04:52;;;;;;;6.47;3.30;;;;;;;21.24;53.24;101073.16;4908442;29;20643;-69
2022/05/27 10:07:32;;;;;;;3.90;1.60;;;;;;;21.20;53.29;101077.28;4908100;29;20226;-69
2022/05/27 10:10:20;;;;;;;3.30;1.53;;;;;;;21.27;53.85;101074.63;4909245;29;20333;-70
2022/05/27 10:12:49;;;;;;;2.70;1.53;;;;;;;21.30;54.09;101069.66;4909144;29;20239;-70
2022/05/27 10:15:29;;;;;;;3.03;1.27;;;;;;;21.45;53.77;101076.75;4906528;29;20316;-72
2022/05/27 10:18:14;;;;;;;3.13;1.40;;;;;;;21.43;53.27;101076.97;4907374;29;20299;-71
2022/05/27 10:20:42;;;;;;;4.13;1.33;;;;;;;21.34;53.67;101084.41;4908968;29;20205;-71
2022/05/27 10:23:20;;;;;;;2.43;1.00;;;;;;;21.11;53.67;101078.47;4910450;29;20247;-72
2022/05/27 10:25:48;;;;;;;3.57;1.23;;;;;;;20.99;53.91;101074.72;4914515;29;20200;-72
2022/05/27 10:28:25;;;;;;;3.47;1.30;;;;;;;20.89;54.38;101085.03;4909698;29;20328;-72
2022/05/27 10:30:55;;;;;;;3.30;1.20;;;;;;;20.77;54.73;101073.16;4911687;29;20310;-70
2022/05/27 10:33:38;;;;;;;4.63;1.20;;;;;;;20.58;55.14;101091.72;4910828;29;20272;-71
2022/05/27 10:36:30;;;;;;;1.83;0.93;;;;;;;20.49;55.11;101092.09;4909691;29;20227;-71
2022/05/27 10:39:03;;;;;;;2.60;1.13;;;;;;;20.42;55.42;101089.34;4918162;29;20205;-68
2022/05/27 10:41:44;;;;;;;1.80;1.07;;;;;;;20.34;55.91;101092.19;4909890;29;20215;-70
2022/05/27 10:44:24;;;;;;;1.83;1.20;;;;;;;20.24;56.18;101084.41;4912941;29;20215;-72
2022/05/27 10:46:54;;;;;;;2.03;1.30;;;;;;;20.19;56.19;101088.72;4913679;29;20219;-72
2022/05/27 10:50:01;;;;;;;3.20;1.40;;;;;;;20.23;56.66;101088.13;4909661;29;20224;-72
2022/05/27 10:52:54;;;;;;;3.60;1.23;;;;;;;20.18;57.01;101098.66;4909734;29;20776;-72
2022/05/27 10:55:32;;;;;;;4.07;1.90;;;;;;;20.19;57.49;101083.34;4908066;29;20267;-72
2022/05/27 11:04:10;;;;;;;2.47;1.33;;;;;;;20.12;57.76;101082.47;4914406;29;20212;-73
2022/05/27 11:06:56;;;;;;;3.33;1.33;;;;;;;20.20;57.55;101080.47;4915176;29;20314;-70
2022/05/27 11:09:34;;;;;;;1.57;1.10;;;;;;;20.11;57.66;101075.41;4910155;29;20217;-70
2022/05/27 11:12:10;;;;;;;4.10;1.10;;;;;;;20.18;57.53;101068.22;4913009;29;20244;-71
2022/05/27 11:17:42;;;;;;;2.30;1.30;;;;;;;20.16;57.42;101078.34;4909505;29;20225;-71
2022/05/27 11:20:31;;;;;;;2.83;1.30;;;;;;;20.25;56.96;101072.63;4910483;29;20232;-71
2022/05/27 11:23:09;;;;;;;5.03;1.40;;;;;;;20.31;57.03;101079.09;4921909;29;20291;-70
2022/05/27 11:25:53;;;;;;;1.90;1.20;;;;;;;20.41;57.13;101071.50;4916312;29;20293;-71
2022/05/27 11:29:04;;;;;;;4.33;1.17;;;;;;;20.55;57.18;101067.03;4913524;29;20406;-72
2022/05/27 11:31:46;;;;;;;2.10;1.40;;;;;;;20.64;57.13;101069.38;4909441;29;20752;-72
2022/05/27 11:34:23;;;;;;;4.27;1.37;;;;;;;20.76;56.80;101068.81;4908657;29;20207;-72
2022/05/27 11:37:22;;;;;;;3.20;1.20;;;;;;;20.88;57.25;101059.13;4914514;29;20235;-72
2022/05/27 11:40:18;;;;;;;4.23;0.90;;;;;;;21.03;56.97;101055.22;4915901;29;20571;-71
2022/05/27 11:43:12;;;;;;;2.53;0.80;;;;;;;21.02;56.44;101041.97;4912514;29;20197;-72
2022/05/27 11:45:52;;;;;;;0.90;0.70;;;;;;;20.92;56.83;101038.81;4899563;29;20354;-71
2022/05/27 11:48:29;;;;;;;4.77;0.80;;;;;;;21.12;56.30;101042.38;4909803;29;20223;-69
2022/05/27 11:51:13;;;;;;;6.17;1.23;;;;;;;21.21;56.56;101041.19;4913080;29;20217;-70
2022/05/27 11:54:03;;;;;;;3.53;1.20;;;;;;;21.21;56.26;101052.00;4909067;29;20363;-69
2022/05/27 11:56:43;;;;;;;3.53;1.00;;;;;;;21.29;56.33;101037.47;4910700;29;20638;-74
2022/05/27 11:59:18;;;;;;;4.37;1.20;;;;;;;21.46;55.83;101038.75;4907402;29;20307;-69
2022/05/27 12:01:51;;;;;;;3.87;0.90;;;;;;;21.54;55.27;101040.44;4910094;29;20637;-68
2022/05/27 12:04:31;;;;;;;7.77;1.27;;;;;;;21.58;54.77;101041.69;4906699;29;20201;-70
2022/05/27 12:07:13;;;;;;;2.57;0.80;;;;;;;21.67;54.07;101041.28;4914145;29;20220;-66
2022/05/27 12:09:47;;;;;;;3.07;0.80;;;;;;;21.82;54.13;101043.75;4908488;29;20325;-70
2022/05/27 12:12:22;;;;;;;4.10;0.93;;;;;;;21.82;54.79;101046.47;4904713;29;20225;-72
2022/05/27 12:14:55;;;;;;;2.50;0.80;;;;;;;21.92;53.79;101038.78;4911829;29;20210;-73
2022/05/27 12:17:37;;;;;;;1.43;0.70;;;;;;;21.96;52.78;101042.75;4913716;29;20208;-71
2022/05/27 12:20:06;;;;;;;1.20;0.80;;;;;;;21.90;53.04;101030.06;4909412;29;20240;-69